Time;durP1;ratioP1;P1;durP2;ratioP2;P2;SDS_P1;SDS_P2;PMS_P1;PMS_P2;Temp;Humidity;BMP_temperature;BMP_pressure;BME280_temperature;BME280_humidity;BME280_pressure;Samples;Min_cycle;Max_cycle;Signal;HPM_P1;HPM_P2
2022/09/20 00:00:47;;;;;;;1.88;1.33;;;;;;;12.95;58.82;99295.09;5031160;28;20030;-70
2022/09/20 00:03:14;;;;;;;2.28;1.10;;;;;;;13.24;58.39;99321.22;5031590;28;20026;-70
2022/09/20 00:05:42;;;;;;;3.53;1.27;;;;;;;13.08;59.06;99319.16;5033484;28;20029;-70
2022/09/20 00:08:11;;;;;;;8.88;1.42;;;;;;;13.18;58.53;99312.22;5033430;28;20207;-70
2022/09/20 00:10:38;;;;;;;1.55;1.40;;;;;;;13.04;58.85;99302.22;5051338;28;20079;-70
2022/09/20 00:13:08;;;;;;;1.00;0.90;;;;;;;13.29;57.92;99318.97;5054638;28;20021;-70
2022/09/20 00:15:39;;;;;;;2.47;1.42;;;;;;;13.47;57.69;99319.53;5046419;28;20036;-70
2022/09/20 00:18:04;;;;;;;1.70;1.20;;;;;;;13.43;56.80;99310.13;5044118;28;20037;-70
2022/09/20 00:20:29;;;;;;;3.30;1.20;;;;;;;13.13;57.18;99282.41;5054523;28;20094;-70
2022/09/20 00:22:55;;;;;;;2.15;1.05;;;;;;;13.43;57.04;99326.19;5054358;28;20032;-70
2022/09/20 00:25:21;;;;;;;1.75;1.15;;;;;;;13.19;56.51;99297.81;5051439;28;20562;-70
2022/09/20 00:27:47;;;;;;;1.77;1.10;;;;;;;13.19;57.43;99302.63;5034032;28;20060;-69
2022/09/20 00:30:13;;;;;;;3.80;1.40;;;;;;;13.20;57.78;99323.91;5033248;28;20039;-69
2022/09/20 00:32:40;;;;;;;1.38;1.15;;;;;;;13.08;58.33;99316.34;5034453;28;20025;-70
2022/09/20 00:35:06;;;;;;;1.30;1.00;;;;;;;13.02;58.35;99310.16;5034121;28;20131;-71
2022/09/20 00:37:33;;;;;;;1.40;1.15;;;;;;;13.03;58.63;99325.84;5034375;28;20025;-69
2022/09/20 00:39:58;;;;;;;1.40;1.00;;;;;;;12.94;59.14;99319.56;5034099;28;20055;-70
2022/09/20 00:42:28;;;;;;;2.22;1.40;;;;;;;12.97;58.95;99323.63;5045417;28;20033;-70
2022/09/20 00:45:06;;;;;;;2.80;0.98;;;;;;;12.94;59.04;99319.56;5033871;28;20110;-69
2022/09/20 00:47:43;;;;;;;1.48;1.33;;;;;;;12.89;59.38;99316.97;5034226;28;20483;-70
2022/09/20 00:50:42;;;;;;;1.67;1.27;;;;;;;13.01;58.67;99319.75;5044869;28;20032;-70
2022/09/20 00:53:40;;;;;;;1.63;0.98;;;;;;;12.88;59.46;99321.78;5053966;28;20021;-69
2022/09/20 00:56:11;;;;;;;3.00;1.35;;;;;;;12.78;59.61;99314.66;5053591;28;20028;-70
2022/09/20 00:58:44;;;;;;;1.08;0.98;;;;;;;12.77;59.94;99313.03;5049425;28;20026;-70
2022/09/20 01:01:10;;;;;;;3.03;0.95;;;;;;;12.75;60.11;99309.75;5032459;28;20480;-70
2022/09/20 01:03:38;;;;;;;1.17;1.00;;;;;;;12.82;60.75;99322.41;5033603;28;20022;-70
2022/09/20 01:06:08;;;;;;;1.42;1.10;;;;;;;12.96;60.18;99317.22;5033758;28;20460;-70
2022/09/20 01:08:35;;;;;;;3.60;1.10;;;;;;;13.06;59.36;99313.06;5032628;28;20123;-70
2022/09/20 01:11:01;;;;;;;1.15;1.05;;;;;;;13.09;59.37;99308.75;5033613;28;20033;-70
2022/09/20 01:13:26;;;;;;;9.77;1.30;;;;;;;12.80;60.13;99279.84;5036501;28;20025;-71
2022/09/20 01:15:53;;;;;;;4.00;1.10;;;;;;;12.88;59.66;99284.47;5052814;28;20021;-70
2022/09/20 01:18:20;;;;;;;2.72;1.13;;;;;;;13.18;58.92;99315.84;5053421;28;20048;-70
2022/09/20 01:20:47;;;;;;;2.85;1.00;;;;;;;12.90;59.65;99297.00;5039489;28;20021;-70
2022/09/20 01:23:37;;;;;;;1.30;0.90;;;;;;;12.99;59.46;99316.50;5033446;28;20029;-70
2022/09/20 01:26:39;;;;;;;1.20;1.10;;;;;;;12.98;59.53;99308.44;5033345;28;20025;-70
2022/09/20 01:29:17;;;;;;;2.58;1.10;;;;;;;12.76;58.62;99272.09;5032027;28;20099;-70
2022/09/20 01:31:51;;;;;;;2.13;1.10;;;;;;;12.78;59.13;99306.25;5033208;28;20025;-71
2022/09/20 01:34:28;;;;;;;1.02;0.90;;;;;;;12.58;59.80;99304.44;5033314;28;20029;-70
2022/09/20 01:37:01;;;;;;;2.78;0.80;;;;;;;12.38;60.49;99309.81;5031223;28;20032;-70
2022/09/20 01:39:45;;;;;;;0.82;0.82;;;;;;;12.56;60.52;99321.59;5031725;28;20112;-70
2022/09/20 01:42:13;;;;;;;3.42;1.15;;;;;;;12.47;60.44;99321.72;5032799;28;20026;-70
2022/09/20 01:45:15;;;;;;;2.17;0.85;;;;;;;12.33;60.70;99324.88;5032816;28;20072;-69
2022/09/20 01:47:49;;;;;;;7.47;1.40;;;;;;;12.34;60.07;99325.72;5031609;28;20029;-70
2022/09/20 01:50:31;;;;;;;4.43;1.25;;;;;;;12.25;60.15;99322.19;5031459;28;20487;-70
2022/09/20 01:52:59;;;;;;;2.10;1.23;;;;;;;12.23;60.16;99325.34;5031523;28;20412;-70
2022/09/20 01:55:43;;;;;;;1.23;1.10;;;;;;;12.25;59.51;99325.00;5032723;28;20488;-70
2022/09/20 01:58:35;;;;;;;1.83;1.13;;;;;;;12.24;59.56;99340.19;5031350;28;20029;-71
2022/09/20 02:01:37;;;;;;;3.95;1.30;;;;;;;12.18;59.65;99336.81;5032615;28;20056;-69
2022/09/20 02:04:06;;;;;;;2.13;1.23;;;;;;;12.12;59.55;99344.63;5032471;28;20411;-70
2022/09/20 02:07:05;;;;;;;1.75;1.55;;;;;;;11.96;59.44;99329.63;5044372;28;20016;-69
2022/09/20 02:10:09;;;;;;;1.83;1.73;;;;;;;11.89;59.71;99341.41;5051108;28;20036;-70
2022/09/20 02:12:53;;;;;;;2.50;1.92;;;;;;;11.83;59.44;99345.59;5052384;28;20025;-69
2022/09/20 02:15:37;;;;;;;4.25;1.92;;;;;;;11.84;59.60;99348.06;5033233;28;20044;-70
2022/09/20 02:18:03;;;;;;;3.65;1.90;;;;;;;11.78;59.41;99346.63;5032242;28;20018;-69
2022/09/20 02:20:47;;;;;;;1.80;1.70;;;;;;;11.77;59.77;99336.59;5041380;28;20032;-70
2022/09/20 02:23:34;;;;;;;4.78;1.80;;;;;;;11.73;59.55;99352.47;5050843;28;20025;-70
2022/09/20 02:26:17;;;;;;;2.30;2.10;;;;;;;11.75;58.65;99350.13;5051855;28;20374;-70
2022/09/20 02:29:10;;;;;;;4.20;2.22;;;;;;;11.70;58.61;99347.53;5040786;28;20031;-69
2022/09/20 02:32:01;;;;;;;3.17;2.47;;;;;;;11.81;58.42;99345.91;5032162;28;20076;-69
2022/09/20 02:34:36;;;;;;;1.73;1.60;;;;;;;11.95;57.87;99337.19;5031954;28;20389;-70
2022/09/20 02:37:26;;;;;;;3.35;2.05;;;;;;;11.94;58.25;99339.22;5031967;28;20496;-70
2022/09/20 02:40:05;;;;;;;2.15;1.90;;;;;;;11.96;57.87;99350.06;5031834;28;20017;-69
2022/09/20 02:42:43;;;;;;;2.72;2.08;;;;;;;11.85;58.66;99337.66;5032185;28;20491;-70
2022/09/20 02:45:08;;;;;;;2.10;1.90;;;;;;;11.73;59.44;99347.66;5034929;28;20065;-69
2022/09/20 02:47:39;;;;;;;2.47;2.28;;;;;;;11.54;59.89;99350.97;5049745;28;20060;-69
2022/09/20 02:50:26;;;;;;;3.00;2.38;;;;;;;11.40;61.05;99361.66;5051684;28;20052;-70
2022/09/20 02:53:22;;;;;;;2.45;2.25;;;;;;;11.31;61.49;99353.34;5051654;28;20021;-69
2022/09/20 02:56:02;;;;;;;2.50;2.30;;;;;;;11.15;62.03;99359.56;5031535;28;20499;-69
2022/09/20 02:58:30;;;;;;;4.32;2.60;;;;;;;11.24;62.17;99360.31;5031381;28;20025;-69
2022/09/20 03:01:04;;;;;;;3.72;2.13;;;;;;;11.27;61.83;99364.41;5043432;28;20107;-69
2022/09/20 03:03:50;;;;;;;4.95;2.65;;;;;;;11.19;62.04;99357.72;5035159;28;20022;-69
2022/09/20 03:06:50;;;;;;;2.53;2.30;;;;;;;11.00;62.11;99357.38;5031424;28;20436;-70
2022/09/20 03:09:34;;;;;;;2.17;1.98;;;;;;;10.99;62.46;99361.34;5040159;28;20032;-71
2022/09/20 03:12:24;;;;;;;3.22;2.40;;;;;;;11.16;61.13;99364.03;5031421;28;20017;-70
2022/09/20 03:15:11;;;;;;;6.75;2.60;;;;;;;11.19;61.39;99366.13;5043131;28;20085;-70
2022/09/20 03:17:41;;;;;;;2.40;2.15;;;;;;;11.18;61.72;99380.44;5045722;28;20032;-70
2022/09/20 03:20:24;;;;;;;4.55;2.40;;;;;;;11.30;61.25;99385.31;5051216;28;20507;-70
2022/09/20 03:22:56;;;;;;;2.35;2.15;;;;;;;11.41;60.33;99392.13;5050980;28;20029;-70
2022/09/20 03:25:33;;;;;;;3.75;2.30;;;;;;;11.36;60.87;99393.16;5051206;28;20021;-70
2022/09/20 03:28:24;;;;;;;2.17;1.98;;;;;;;11.43;60.22;99398.22;5051026;28;20090;-71
2022/09/20 03:31:14;;;;;;;3.22;2.80;;;;;;;11.40;60.63;99392.47;5030328;28;20099;-69
2022/09/20 03:33:51;;;;;;;3.00;2.70;;;;;;;11.33;61.08;99388.22;5031192;28;20025;-70
2022/09/20 03:36:52;;;;;;;3.88;2.90;;;;;;;11.29;60.64;99380.88;5029746;28;20091;-70
2022/09/20 03:39:36;;;;;;;3.63;2.85;;;;;;;11.43;60.53;99388.97;5034862;28;20442;-70
2022/09/20 03:42:23;;;;;;;6.30;3.20;;;;;;;11.24;61.24;99393.09;5034934;28;20076;-70
2022/09/20 03:45:07;;;;;;;9.30;3.45;;;;;;;11.15;61.27;99403.53;5047263;28;20128;-70
2022/09/20 03:47:42;;;;;;;4.65;2.55;;;;;;;11.13;61.81;99398.28;5049309;28;20108;-71
2022/09/20 03:50:22;;;;;;;3.63;2.90;;;;;;;11.13;61.46;99383.47;5043675;28;20215;-70
2022/09/20 03:53:31;;;;;;;5.00;3.58;;;;;;;11.18;61.37;99391.66;5034988;28;20438;-70
2022/09/20 03:56:36;;;;;;;3.13;2.53;;;;;;;11.11;61.68;99391.41;5034935;28;20393;-70
2022/09/20 03:59:35;;;;;;;3.13;2.72;;;;;;;11.37;61.08;99393.97;5050528;28;20024;-70
2022/09/20 04:02:25;;;;;;;5.35;3.00;;;;;;;11.31;61.03;99403.75;5054650;28;20021;-70
2022/09/20 04:05:19;;;;;;;10.15;3.20;;;;;;;11.25;61.18;99400.34;5049347;28;20024;-71
2022/09/20 04:07:50;;;;;;;9.65;3.05;;;;;;;11.33;61.80;99421.81;5046515;28;20416;-70
2022/09/20 04:10:23;;;;;;;5.00;2.90;;;;;;;11.41;61.34;99416.50;5034182;28;20476;-71
2022/09/20 04:12:56;;;;;;;2.75;2.45;;;;;;;11.23;62.20;99413.88;5050963;28;20491;-72
2022/09/20 04:15:45;;;;;;;3.92;2.88;;;;;;;11.15;62.25;99421.13;5034497;28;20026;-70
2022/09/20 04:18:48;;;;;;;3.67;3.10;;;;;;;10.88;62.87;99428.09;5041163;28;20037;-69
2022/09/20 04:21:31;;;;;;;5.53;3.40;;;;;;;10.67;63.86;99424.06;5054332;28;20024;-70
2022/09/20 04:24:52;;;;;;;5.88;3.38;;;;;;;10.73;63.46;99430.28;5054142;28;20025;-69
2022/09/20 04:27:37;;;;;;;4.78;3.92;;;;;;;10.63;64.30;99428.69;5051939;28;20074;-70
2022/09/20 04:30:28;;;;;;;8.25;3.35;;;;;;;10.42;64.20;99434.22;5052199;28;20029;-69
2022/09/20 04:33:02;;;;;;;9.63;3.40;;;;;;;10.21;65.41;99432.13;5037788;28;20082;-69
2022/09/20 04:38:32;;;;;;;18.40;4.15;;;;;;;10.37;65.79;99438.00;5033923;28;20032;-68
2022/09/20 04:41:32;;;;;;;4.85;3.47;;;;;;;10.31;65.33;99444.91;5035480;28;20025;-72
2022/09/20 04:44:05;;;;;;;5.70;3.47;;;;;;;10.30;65.24;99445.25;5033760;28;20045;-74
2022/09/20 04:46:40;;;;;;;64.93;10.02;;;;;;;10.53;64.73;99449.47;5033834;28;20021;-72
2022/09/20 04:49:47;;;;;;;3.60;3.30;;;;;;;10.73;64.34;99449.88;5032336;28;20033;-73
2022/09/20 04:53:01;;;;;;;6.72;3.15;;;;;;;10.93;63.32;99461.47;5034830;28;20408;-75
2022/09/20 04:55:55;;;;;;;7.53;3.17;;;;;;;11.20;62.83;99459.31;5034590;28;20025;-73
2022/09/20 04:58:37;;;;;;;5.28;3.50;;;;;;;11.32;61.72;99456.59;5050420;28;20082;-71
2022/09/20 05:01:15;;;;;;;9.30;3.60;;;;;;;11.38;61.34;99458.03;5037736;28;20562;-71
2022/09/20 05:04:05;;;;;;;4.05;3.13;;;;;;;11.47;61.11;99462.78;5033674;28;20033;-74
2022/09/20 05:06:31;;;;;;;4.90;3.42;;;;;;;11.65;60.32;99457.84;5035768;28;20553;-82
2022/09/20 05:09:05;;;;;;;8.10;3.58;;;;;;;11.89;60.52;99454.31;5051974;28;20041;-80
2022/09/20 05:11:50;;;;;;;10.25;4.20;;;;;;;11.93;59.82;99441.25;5052383;28;20488;-74
2022/09/20 05:14:50;;;;;;;6.10;3.63;;;;;;;12.06;59.96;99438.50;5040634;28;20025;-73
2022/09/20 05:17:37;;;;;;;15.73;5.00;;;;;;;12.05;59.51;99432.09;5039241;28;20048;-76
2022/09/20 05:20:23;;;;;;;6.53;3.53;;;;;;;11.94;59.67;99437.31;5040493;28;20195;-74
2022/09/20 05:23:11;;;;;;;4.03;3.33;;;;;;;11.86;59.48;99443.81;5031759;28;20404;-74
2022/09/20 05:26:07;;;;;;;9.30;3.22;;;;;;;11.78;59.82;99442.72;5053939;28;20090;-74
2022/09/20 05:28:45;;;;;;;11.90;3.38;;;;;;;11.82;60.05;99453.25;5052247;28;20415;-74
2022/09/20 05:31:19;;;;;;;4.38;3.20;;;;;;;11.78;60.03;99451.13;5050264;28;20025;-74
2022/09/20 05:34:03;;;;;;;7.82;3.47;;;;;;;11.88;60.29;99461.09;5031659;28;20104;-76
2022/09/20 05:36:35;;;;;;;6.80;3.30;;;;;;;11.89;60.08;99462.72;5044310;28;20487;-74
2022/09/20 05:39:34;;;;;;;8.27;4.25;;;;;;;11.91;59.94;99457.59;5052725;28;20036;-75
2022/09/20 05:42:19;;;;;;;11.48;5.00;;;;;;;12.04;60.45;99458.50;5043549;28;20060;-74
2022/09/20 05:45:27;;;;;;;3.33;3.03;;;;;;;12.21;59.46;99445.44;5032659;28;20504;-74
2022/09/20 05:48:04;;;;;;;6.78;3.65;;;;;;;12.40;59.36;99455.31;5018921;28;20052;-74
2022/09/20 05:51:06;;;;;;;2.95;2.40;;;;;;;12.70;58.00;99469.97;5036045;28;20436;-74
2022/09/20 05:53:54;;;;;;;4.43;3.05;;;;;;;12.94;57.49;99468.34;5033118;28;20037;-75
2022/09/20 05:56:51;;;;;;;4.13;2.65;;;;;;;13.05;55.46;99466.69;5036902;28;20112;-79
2022/09/20 05:59:41;;;;;;;2.97;2.65;;;;;;;12.94;54.49;99459.91;5033072;28;20476;-74
2022/09/20 06:02:28;;;;;;;7.07;3.10;;;;;;;12.86;54.60;99463.66;5030614;28;20028;-74
2022/09/20 06:05:16;;;;;;;5.85;2.60;;;;;;;12.87;55.16;99456.88;5031667;28;20513;-73
2022/09/20 06:07:54;;;;;;;3.15;2.83;;;;;;;13.04;53.90;99470.69;5048375;28;20033;-73
2022/09/20 06:10:50;;;;;;;9.52;3.25;;;;;;;13.14;54.33;99460.97;5050081;28;20056;-75
2022/09/20 06:13:43;;;;;;;8.70;2.80;;;;;;;13.09;52.96;99461.19;5039318;28;20033;-78
2022/09/20 06:16:17;;;;;;;2.70;2.50;;;;;;;12.94;53.13;99462.72;5047488;28;20054;-77
2022/09/20 06:18:54;;;;;;;13.65;2.90;;;;;;;12.83;54.21;99470.78;5050953;28;20067;-79
2022/09/20 06:22:03;;;;;;;5.90;2.40;;;;;;;12.74;52.67;99472.91;5032412;28;20021;-79
2022/09/20 06:24:38;;;;;;;4.82;2.53;;;;;;;12.79;53.32;99469.84;5031249;28;20046;-75
2022/09/20 06:27:09;;;;;;;5.63;3.28;;;;;;;12.87;53.77;99473.72;5030387;28;20411;-74
2022/09/20 06:29:39;;;;;;;4.72;3.00;;;;;;;12.86;51.88;99470.09;5046796;28;20039;-72
2022/09/20 06:32:04;;;;;;;3.35;2.72;;;;;;;12.71;51.84;99460.38;5044140;28;20049;-73
2022/09/20 06:34:30;;;;;;;3.75;3.40;;;;;;;12.89;54.38;99468.56;5031913;28;20427;-74
2022/09/20 06:43:23;;;;;;;10.18;3.33;;;;;;;13.04;51.57;99459.44;5031404;28;20604;-76
2022/09/20 06:45:49;;;;;;;3.55;3.22;;;;;;;13.06;51.02;99471.16;5033643;28;20099;-81
2022/09/20 06:48:14;;;;;;;19.27;3.92;;;;;;;13.01;51.67;99454.50;5039684;28;20021;-78
2022/09/20 06:50:44;;;;;;;3.35;3.05;;;;;;;13.44;51.50;99485.16;5031728;28;20033;-78
2022/09/20 06:53:16;;;;;;;5.80;2.73;;;;;;;13.55;51.12;99477.06;5042536;28;20036;-83
2022/09/20 06:55:43;;;;;;;5.32;3.05;;;;;;;13.57;50.71;99463.47;5066994;28;20423;-79
2022/09/20 06:58:09;;;;;;;2.47;2.28;;;;;;;13.80;49.83;99465.72;5048414;28;20414;-73
2022/09/20 07:00:35;;;;;;;6.15;3.05;;;;;;;13.89;50.17;99472.03;5045776;28;20029;-74
2022/09/20 07:03:00;;;;;;;4.20;2.55;;;;;;;13.95;49.18;99476.25;5052313;28;20107;-73
2022/09/20 07:05:25;;;;;;;2.40;2.20;;;;;;;14.04;49.99;99464.81;5057478;28;20047;-73
2022/09/20 07:07:58;;;;;;;3.08;2.58;;;;;;;14.20;47.44;99462.06;5054951;28;20029;-73
2022/09/20 07:10:28;;;;;;;3.08;2.55;;;;;;;14.40;47.42;99477.06;5044181;28;20025;-73
2022/09/20 07:12:59;;;;;;;3.10;2.22;;;;;;;14.22;47.42;99464.50;5045981;28;20113;-73
2022/09/20 07:15:28;;;;;;;3.08;2.45;;;;;;;14.28;47.79;99463.06;5032754;28;20072;-73
2022/09/20 07:17:54;;;;;;;3.58;2.58;;;;;;;14.40;47.65;99481.84;5057483;28;20025;-73
2022/09/20 07:20:20;;;;;;;2.53;2.33;;;;;;;14.17;47.30;99469.22;5039387;28;20460;-73
2022/09/20 07:22:46;;;;;;;20.27;3.83;;;;;;;14.09;47.60;99478.63;5046618;28;20120;-73
2022/09/20 07:25:12;;;;;;;7.47;2.33;;;;;;;14.39;47.13;99475.44;5042390;28;20083;-73
2022/09/20 07:27:38;;;;;;;4.00;2.70;;;;;;;14.54;46.63;99475.81;5046727;28;20033;-73
2022/09/20 07:30:05;;;;;;;7.88;2.88;;;;;;;14.70;46.37;99482.25;5040810;28;20534;-73
2022/09/20 07:32:31;;;;;;;5.07;2.83;;;;;;;14.96;46.37;99474.47;5041162;28;20032;-73
2022/09/20 07:34:56;;;;;;;3.28;1.85;;;;;;;15.09;45.92;99467.53;5034576;28;20420;-73
2022/09/20 07:37:22;;;;;;;11.82;2.33;;;;;;;15.19;45.76;99476.63;5038761;28;20175;-74
2022/09/20 07:39:47;;;;;;;2.13;2.03;;;;;;;15.29;45.76;99464.78;5048751;28;20029;-73
2022/09/20 07:42:13;;;;;;;5.82;2.13;;;;;;;15.64;45.62;99474.41;5032375;28;20025;-73
2022/09/20 07:44:41;;;;;;;2.75;2.08;;;;;;;15.46;44.95;99483.28;5048094;28;20080;-73
2022/09/20 07:47:08;;;;;;;3.97;1.63;;;;;;;15.47;44.89;99461.53;5051281;28;20025;-76
2022/09/20 07:49:35;;;;;;;7.78;2.30;;;;;;;15.85;43.85;99474.88;5051449;28;20037;-76
2022/09/20 07:52:01;;;;;;;3.45;1.73;;;;;;;15.94;44.45;99473.88;5050064;28;20021;-75
2022/09/20 07:54:27;;;;;;;2.40;2.20;;;;;;;15.94;43.66;99471.84;5051254;28;20479;-75
2022/09/20 07:56:52;;;;;;;2.47;1.65;;;;;;;16.10;41.93;99471.75;5047154;28;20075;-75
2022/09/20 07:59:18;;;;;;;6.53;1.90;;;;;;;16.09;41.30;99464.50;5038232;28;20389;-73
2022/09/20 08:01:43;;;;;;;9.55;1.80;;;;;;;15.98;40.52;99464.25;5030849;28;20063;-74
2022/09/20 08:04:10;;;;;;;1.85;1.58;;;;;;;16.05;39.98;99469.25;5033735;28;20476;-74
2022/09/20 08:06:40;;;;;;;2.83;1.38;;;;;;;16.11;41.15;99462.09;5040963;28;20041;-73
2022/09/20 08:09:06;;;;;;;3.67;1.30;;;;;;;16.26;40.89;99451.09;5034113;28;20107;-74
2022/09/20 08:11:34;;;;;;;8.05;3.30;;;;;;;16.37;40.43;99451.31;5032532;28;20450;-74
2022/09/20 08:14:00;;;;;;;3.75;1.30;;;;;;;16.45;40.07;99449.44;5042143;28;20024;-73
2022/09/20 08:16:27;;;;;;;5.90;1.23;;;;;;;16.56;40.15;99444.78;5034959;28;20033;-73
2022/09/20 08:18:58;;;;;;;1.67;1.30;;;;;;;16.74;39.57;99449.91;5030286;28;20025;-74
2022/09/20 08:21:25;;;;;;;8.73;2.53;;;;;;;16.49;39.31;99439.84;5031169;28;20551;-74
2022/09/20 08:23:51;;;;;;;2.92;1.48;;;;;;;16.58;39.86;99430.28;5035468;28;20040;-74
2022/09/20 08:26:23;;;;;;;3.15;1.20;;;;;;;16.54;40.11;99441.53;5043586;28;20411;-75
2022/09/20 08:28:52;;;;;;;9.05;2.20;;;;;;;16.81;39.61;99433.09;5038707;28;20029;-73
2022/09/20 08:31:19;;;;;;;2.85;1.23;;;;;;;16.92;39.57;99431.25;5034134;28;20106;-74
2022/09/20 08:33:46;;;;;;;2.47;1.50;;;;;;;17.15;39.27;99438.09;5039872;28;20031;-73
2022/09/20 08:36:16;;;;;;;1.85;1.05;;;;;;;17.08;38.29;99433.97;5038859;28;20083;-74
2022/09/20 08:38:43;;;;;;;2.03;1.00;;;;;;;17.16;38.08;99431.22;5041273;28;20124;-74
2022/09/20 08:41:30;;;;;;;1.25;1.15;;;;;;;17.05;38.39;99437.53;5042029;28;20029;-74
2022/09/20 08:44:01;;;;;;;1.13;1.08;;;;;;;17.23;38.91;99426.50;5044792;28;20592;-78
2022/09/20 08:46:38;;;;;;;3.58;1.25;;;;;;;17.23;39.20;99425.69;5033581;28;20112;-74
2022/09/20 08:49:06;;;;;;;7.60;1.00;;;;;;;17.39;38.77;99429.16;5036691;28;20094;-73
2022/09/20 08:51:36;;;;;;;8.02;2.28;;;;;;;17.36;38.79;99426.25;5041834;28;20060;-73
2022/09/20 08:54:06;;;;;;;3.67;1.48;;;;;;;17.49;38.49;99412.72;5037165;28;20021;-74
2022/09/20 08:56:37;;;;;;;4.05;1.38;;;;;;;17.42;37.82;99404.13;5052395;28;20033;-74
2022/09/20 08:59:06;;;;;;;2.20;1.10;;;;;;;17.56;38.11;99417.66;5051717;28;20511;-73
2022/09/20 09:01:32;;;;;;;1.15;0.90;;;;;;;17.35;38.17;99408.50;5044654;28;20053;-73
2022/09/20 09:04:22;;;;;;;3.58;1.20;;;;;;;17.44;36.54;99418.72;5033357;28;20029;-73
2022/09/20 09:06:48;;;;;;;;;;;;;;;17.75;37.41;99423.16;5035574;28;20166;-74
2022/09/20 09:09:24;;;;;;;3.50;0.80;;;;;;;17.79;36.85;99420.34;5035911;28;19913;-73
2022/09/20 09:11:51;;;;;;;3.00;1.80;;;;;;;17.14;37.64;99411.03;5036603;28;20120;-75
2022/09/20 09:14:47;;;;;;;12.18;1.40;;;;;;;17.56;37.45;99409.16;5041720;28;20112;-74
2022/09/20 09:17:24;;;;;;;4.93;0.80;;;;;;;17.63;37.03;99395.13;5033552;28;20032;-74
2022/09/20 09:19:56;;;;;;;0.73;0.73;;;;;;;17.58;36.89;99401.09;5048610;28;20032;-74
2022/09/20 09:22:44;;;;;;;1.25;0.90;;;;;;;17.95;36.57;99392.66;5046725;28;20497;-74
2022/09/20 09:25:22;;;;;;;2.42;1.33;;;;;;;17.93;36.62;99400.75;5045623;28;20033;-72
2022/09/20 09:27:57;;;;;;;0.82;0.75;;;;;;;17.95;36.64;99395.50;5031668;28;20025;-72
2022/09/20 09:30:34;;;;;;;2.55;1.30;;;;;;;18.10;36.12;99390.84;5050116;28;20033;-75
2022/09/20 09:33:22;;;;;;;1.25;1.15;;;;;;;18.35;36.65;99393.09;5041228;28;20029;-74
2022/09/20 09:35:55;;;;;;;4.57;1.00;;;;;;;18.17;36.89;99389.28;5031051;28;20067;-76
2022/09/20 09:38:24;;;;;;;4.93;2.03;;;;;;;18.48;35.79;99381.47;5044121;28;20052;-78
2022/09/20 09:40:55;;;;;;;8.95;1.80;;;;;;;18.01;35.93;99384.66;5047910;28;20139;-76
2022/09/20 09:43:34;;;;;;;1.20;0.95;;;;;;;18.13;36.88;99394.91;5032602;28;20083;-74
2022/09/20 09:46:21;;;;;;;1.20;0.70;;;;;;;18.24;36.16;99376.00;5029483;28;20106;-74
2022/09/20 09:49:06;;;;;;;0.75;0.75;;;;;;;18.56;36.07;99380.31;5034455;28;20024;-76
2022/09/20 09:51:33;;;;;;;1.23;0.70;;;;;;;18.78;35.21;99389.00;5048450;28;20045;-75
2022/09/20 09:53:59;;;;;;;5.55;2.60;;;;;;;18.62;34.56;99377.94;5041729;28;20461;-74
2022/09/20 09:57:02;;;;;;;0.82;0.70;;;;;;;18.41;35.18;99379.41;5037163;28;20035;-74
2022/09/20 09:59:31;;;;;;;5.80;1.08;;;;;;;18.67;35.52;99377.59;5036313;28;20033;-72
2022/09/20 10:02:03;;;;;;;4.22;1.30;;;;;;;19.16;34.59;99371.88;5031810;28;20029;-73
2022/09/20 10:04:43;;;;;;;5.07;0.85;;;;;;;19.00;34.88;99375.00;5052198;28;20037;-71
2022/09/20 10:07:22;;;;;;;6.53;1.25;;;;;;;19.37;35.11;99359.81;5051017;28;20047;-71
2022/09/20 10:10:15;;;;;;;1.13;0.70;;;;;;;19.49;34.63;99359.47;5033516;28;20074;-71
2022/09/20 10:13:04;;;;;;;1.05;0.70;;;;;;;19.35;33.26;99370.75;5036553;28;20060;-71
2022/09/20 10:15:50;;;;;;;8.20;2.17;;;;;;;19.78;35.21;99370.13;5032402;28;20048;-73
2022/09/20 10:18:33;;;;;;;2.97;0.80;;;;;;;19.80;34.12;99356.34;5039185;28;20120;-72
2022/09/20 10:21:47;;;;;;;9.15;1.83;;;;;;;20.66;33.19;99349.16;5033326;28;20029;-73
2022/09/20 10:24:38;;;;;;;5.13;1.58;;;;;;;21.36;38.13;99342.13;5038453;28;20086;-73
2022/09/20 10:27:35;;;;;;;1.50;0.75;;;;;;;21.13;32.41;99346.25;5038231;28;20028;-69
2022/09/20 10:30:07;;;;;;;0.80;0.80;;;;;;;20.92;32.09;99347.09;5045119;28;20014;-71
2022/09/20 10:32:44;;;;;;;0.60;0.60;;;;;;;20.67;33.32;99353.59;5045683;28;20083;-73
2022/09/20 10:35:31;;;;;;;3.88;1.08;;;;;;;20.14;33.96;99338.19;5038552;28;20402;-72
2022/09/20 10:38:03;;;;;;;1.77;0.45;;;;;;;20.02;31.60;99345.88;5043471;28;20022;-73
2022/09/20 10:44:15;;;;;;;2.58;1.10;;;;;;;19.96;32.62;99347.50;5042913;28;20597;-75
2022/09/20 10:47:05;;;;;;;4.03;2.75;;;;;;;20.14;32.23;99329.66;5039355;28;20087;-74
2022/09/20 10:49:50;;;;;;;;;;;;;;;20.14;32.04;99332.50;5045949;28;20020;-71
2022/09/20 10:52:22;;;;;;;3.53;0.75;;;;;;;19.98;31.69;99315.88;5040015;28;19959;-72
2022/09/20 10:55:14;;;;;;;1.98;0.90;;;;;;;20.11;31.66;99324.78;5033036;28;20025;-73
2022/09/20 10:58:04;;;;;;;4.20;2.17;;;;;;;20.12;31.12;99329.25;5029721;28;20021;-72
2022/09/20 11:00:44;;;;;;;3.20;1.70;;;;;;;19.99;31.32;99320.34;5031341;28;20507;-74
2022/09/20 11:03:20;;;;;;;;;;;;;;;20.20;31.19;99322.38;5037904;28;20556;-73
2022/09/20 11:06:14;;;;;;;1.60;0.73;;;;;;;20.60;31.01;99293.97;5034125;28;19917;-73
2022/09/20 11:08:42;;;;;;;1.48;0.60;;;;;;;20.27;29.24;99322.41;5041757;28;20020;-71
2022/09/20 11:11:12;;;;;;;0.75;0.65;;;;;;;20.39;31.03;99306.97;5039762;28;20025;-73
2022/09/20 11:13:56;;;;;;;;;;;;;;;19.84;31.78;99308.91;5042970;28;20017;-73
2022/09/20 11:16:34;;;;;;;1.00;0.73;;;;;;;21.07;31.88;99296.72;5042519;28;19909;-73
2022/09/20 11:19:08;;;;;;;3.53;0.73;;;;;;;21.12;30.77;99299.16;5030976;28;20022;-74
2022/09/20 11:21:42;;;;;;;1.75;1.20;;;;;;;21.08;30.50;99291.84;5031042;28;20017;-73
2022/09/20 11:24:29;;;;;;;2.83;0.63;;;;;;;20.83;30.02;99296.38;5035741;28;20109;-72
2022/09/20 11:27:07;;;;;;;0.60;0.60;;;;;;;20.49;30.09;99288.28;5031581;28;20484;-72
2022/09/20 11:29:39;;;;;;;5.10;0.70;;;;;;;20.97;29.98;99286.19;5031152;28;20029;-74
2022/09/20 11:32:23;;;;;;;7.45;1.30;;;;;;;21.11;30.94;99286.13;5031786;28;20034;-73
2022/09/20 11:35:02;;;;;;;1.92;0.70;;;;;;;20.42;30.20;99274.09;5037854;28;20029;-75
2022/09/20 11:37:41;;;;;;;1.15;0.70;;;;;;;20.64;30.63;99282.59;5031065;28;20048;-73
2022/09/20 11:40:30;;;;;;;1.17;0.70;;;;;;;20.36;29.34;99270.03;5029771;28;20496;-74
2022/09/20 11:42:59;;;;;;;1.60;0.60;;;;;;;20.39;30.31;99263.53;5030836;28;20025;-74
2022/09/20 11:45:30;;;;;;;2.00;0.40;;;;;;;20.56;29.37;99254.19;5043688;28;20056;-76
2022/09/20 11:47:59;;;;;;;;;;;;;;;20.33;30.16;99274.50;5037861;28;20037;-75
2022/09/20 11:50:55;;;;;;;5.18;0.65;;;;;;;20.44;30.33;99260.31;5035915;28;19917;-71
2022/09/20 11:53:23;;;;;;;3.45;0.63;;;;;;;20.44;30.35;99263.13;5030456;28;20026;-73
2022/09/20 11:56:04;;;;;;;0.60;0.50;;;;;;;20.19;30.10;99261.13;5045103;28;20025;-72
2022/09/20 11:58:30;;;;;;;2.60;0.63;;;;;;;19.97;29.45;99240.44;5042550;28;20034;-73
2022/09/20 12:00:58;;;;;;;0.60;0.50;;;;;;;20.42;30.01;99257.84;5034803;28;20141;-72
2022/09/20 12:03:36;;;;;;;0.85;0.70;;;;;;;20.34;29.52;99247.75;5034594;28;20034;-73
2022/09/20 12:06:25;;;;;;;2.63;0.68;;;;;;;20.36;29.14;99253.00;5034747;28;20096;-74
2022/09/20 12:08:51;;;;;;;2.83;0.98;;;;;;;20.59;28.20;99252.56;5044868;28;20025;-73
2022/09/20 12:11:30;;;;;;;1.67;0.95;;;;;;;20.72;28.95;99241.56;5042816;28;20155;-73
2022/09/20 12:14:04;;;;;;;1.10;0.40;;;;;;;20.54;29.15;99241.59;5050762;28;20021;-72
2022/09/20 12:16:38;;;;;;;0.45;0.45;;;;;;;20.73;28.81;99251.72;5034500;28;20033;-73
2022/09/20 12:19:07;;;;;;;1.13;0.43;;;;;;;20.62;30.23;99246.84;5034364;28;20062;-73
2022/09/20 12:21:57;;;;;;;3.78;0.70;;;;;;;20.75;29.04;99241.56;5034273;28;20026;-73
2022/09/20 12:24:31;;;;;;;1.48;0.70;;;;;;;20.79;28.92;99247.25;5043130;28;20107;-76
2022/09/20 12:27:17;;;;;;;1.75;0.77;;;;;;;20.82;28.54;99240.75;5050833;28;20043;-74
2022/09/20 12:29:48;;;;;;;0.98;0.88;;;;;;;20.64;28.97;99239.97;5040287;28;20041;-77
2022/09/20 12:32:40;;;;;;;0.60;0.60;;;;;;;20.85;28.82;99239.13;5036062;28;20075;-73
2022/09/20 12:35:48;;;;;;;0.60;0.50;;;;;;;20.86;28.63;99244.38;5047583;28;20037;-72
2022/09/20 12:38:19;;;;;;;1.48;0.60;;;;;;;20.50;28.83;99243.66;5048528;28;20033;-73